Time;durP1;ratioP1;P1;durP2;ratioP2;P2;SDS_P1;SDS_P2;PMS_P1;PMS_P2;Temp;Humidity;BMP_temperature;BMP_pressure;BME280_temperature;BME280_humidity;BME280_pressure;Samples;Min_cycle;Max_cycle;Signal;HPM_P1;HPM_P2
2022/10/01 00:00:14;;;;;;;8.38;5.38;;;11.60;99.90;;;;;;3056838;19;20508;-71
2022/10/01 00:01:17;;;;;;;8.15;5.47;;;11.60;99.90;;;;;;3060693;19;20366;-70
2022/10/01 00:02:21;;;;;;;8.43;5.80;;;11.50;99.90;;;;;;3059036;19;20488;-71
2022/10/01 00:03:24;;;;;;;8.07;5.60;;;11.40;99.90;;;;;;3059224;19;20018;-71
2022/10/01 00:04:29;;;;;;;8.10;5.68;;;11.50;99.90;;;;;;3057877;19;20386;-73
2022/10/01 00:05:30;;;;;;;8.57;6.05;;;11.40;99.90;;;;;;3058028;19;20508;-72
2022/10/01 00:06:34;;;;;;;6.45;5.32;;;11.40;99.90;;;;;;3059741;19;20020;-71
2022/10/01 00:07:40;;;;;;;8.50;5.80;;;11.30;99.90;;;;;;3058415;19;20098;-71
2022/10/01 00:08:47;;;;;;;6.65;5.80;;;11.50;99.90;;;;;;3058907;19;20014;-71
2022/10/01 00:09:48;;;;;;;6.90;5.30;;;11.30;99.90;;;;;;3058241;19;20018;-71
2022/10/01 00:10:52;;;;;;;8.20;6.63;;;11.30;99.90;;;;;;3060253;19;20018;-71
2022/10/01 00:11:58;;;;;;;7.72;5.93;;;11.30;99.90;;;;;;3058946;19;20014;-71
2022/10/01 00:13:02;;;;;;;8.77;6.32;;;11.20;99.90;;;;;;3057240;19;20466;-71
2022/10/01 00:14:04;;;;;;;12.20;6.18;;;11.10;99.90;;;;;;3058752;19;20022;-71
2022/10/01 00:15:09;;;;;;;8.73;6.18;;;11.60;99.90;;;;;;3058907;19;20365;-71
2022/10/01 00:16:12;;;;;;;12.98;6.50;;;11.20;99.90;;;;;;3058392;19;20026;-71
2022/10/01 00:17:16;;;;;;;8.25;6.40;;;11.10;99.90;;;;;;3058594;19;20014;-71
2022/10/01 00:18:17;;;;;;;10.05;6.60;;;11.60;99.90;;;;;;3058597;19;20022;-71
2022/10/01 00:19:21;;;;;;;9.25;6.70;;;11.10;99.90;;;;;;3059202;19;20012;-71
2022/10/01 00:20:22;;;;;;;7.65;6.53;;;11.40;99.90;;;;;;3057040;19;20022;-71
2022/10/01 00:21:30;;;;;;;9.07;6.68;;;11.10;99.90;;;;;;3058743;19;20404;-71
2022/10/01 00:22:31;;;;;;;10.85;6.45;;;11.10;99.90;;;;;;3058570;19;20011;-70
2022/10/01 00:23:35;;;;;;;11.32;6.60;;;11.40;99.90;;;;;;3058873;19;20462;-71
2022/10/01 00:24:39;;;;;;;9.55;6.70;;;11.00;99.90;;;;;;3058602;19;20428;-71
2022/10/01 00:25:42;;;;;;;11.10;6.97;;;11.40;99.90;;;;;;3058676;19;20023;-71
2022/10/01 00:26:46;;;;;;;9.45;6.75;;;10.80;99.90;;;;;;3058849;19;20027;-72
2022/10/01 00:27:51;;;;;;;13.13;7.13;;;11.10;99.90;;;;;;3058971;19;20013;-71
2022/10/01 00:28:57;;;;;;;10.25;7.43;;;11.00;99.90;;;;;;3058588;19;20011;-70
2022/10/01 00:29:58;;;;;;;9.23;7.30;;;10.90;99.90;;;;;;3058042;19;20006;-72
2022/10/01 00:31:02;;;;;;;10.35;7.13;;;10.90;99.90;;;;;;3059895;19;20494;-71
2022/10/01 00:32:03;;;;;;;10.18;7.07;;;10.90;99.90;;;;;;3058990;19;20040;-70
2022/10/01 00:33:07;;;;;;;10.93;7.55;;;11.20;99.90;;;;;;3056529;19;20055;-72
2022/10/01 00:34:11;;;;;;;10.02;7.30;;;10.90;99.90;;;;;;3058686;19;20011;-71
2022/10/01 00:35:15;;;;;;;11.65;7.78;;;10.80;99.90;;;;;;3058322;19;20019;-71
2022/10/01 00:36:17;;;;;;;9.05;6.90;;;11.00;99.90;;;;;;3057809;19;20395;-71
2022/10/01 00:37:21;;;;;;;11.65;7.82;;;10.80;99.90;;;;;;3058924;19;20379;-71
2022/10/01 00:38:22;;;;;;;9.07;7.03;;;10.90;99.90;;;;;;3058595;19;20003;-71
2022/10/01 00:39:26;;;;;;;10.70;8.02;;;11.00;99.90;;;;;;3058148;19;20022;-71
2022/10/01 00:40:28;;;;;;;11.23;7.63;;;10.90;99.90;;;;;;3057934;19;20015;-71
2022/10/01 00:41:34;;;;;;;10.18;7.68;;;10.80;99.90;;;;;;3058450;19;20497;-71
2022/10/01 00:42:35;;;;;;;10.65;7.75;;;10.80;99.90;;;;;;3058702;19;20018;-71
2022/10/01 00:43:47;;;;;;;11.13;8.07;;;11.20;99.90;;;;;;3058374;19;20032;-71
2022/10/01 00:44:49;;;;;;;12.75;7.80;;;10.80;99.90;;;;;;3058658;19;20006;-71
2022/10/01 00:45:54;;;;;;;17.35;7.78;;;10.60;99.90;;;;;;3058564;19;20018;-71
2022/10/01 00:47:00;;;;;;;10.77;7.75;;;10.80;99.90;;;;;;3057861;19;20014;-70
2022/10/01 00:48:04;;;;;;;11.80;7.82;;;10.80;99.90;;;;;;3058833;19;20021;-71
2022/10/01 00:49:10;;;;;;;12.48;8.18;;;10.70;99.90;;;;;;3058765;19;20014;-71
2022/10/01 00:50:20;;;;;;;11.45;8.32;;;10.60;99.90;;;;;;3058244;19;20014;-71
2022/10/01 00:51:22;;;;;;;11.15;8.07;;;10.60;99.90;;;;;;3059084;19;20018;-71
2022/10/01 00:52:30;;;;;;;10.73;7.70;;;10.80;99.90;;;;;;3058713;19;20014;-71
2022/10/01 00:53:32;;;;;;;10.98;7.90;;;10.80;99.90;;;;;;3058236;19;20487;-71
2022/10/01 00:54:42;;;;;;;12.02;8.02;;;10.50;99.90;;;;;;3058611;19;20467;-71
2022/10/01 00:55:47;;;;;;;13.18;8.18;;;10.50;99.90;;;;;;3058235;19;20503;-70
2022/10/01 00:56:55;;;;;;;9.90;7.78;;;10.40;99.90;;;;;;3054554;19;20372;-71
2022/10/01 00:57:56;;;;;;;11.50;7.72;;;10.70;99.90;;;;;;3057809;19;20539;-70
2022/10/01 00:59:03;;;;;;;9.77;7.78;;;10.70;99.90;;;;;;3058004;19;20014;-71
2022/10/01 01:00:08;;;;;;;10.63;7.93;;;10.80;99.90;;;;;;3057804;19;20026;-71
2022/10/01 01:01:12;;;;;;;11.25;8.20;;;10.70;99.90;;;;;;3058173;19;20830;-70
2022/10/01 01:02:13;;;;;;;11.52;7.93;;;10.90;99.90;;;;;;3058600;19;20027;-71
2022/10/01 01:03:18;;;;;;;12.10;8.20;;;10.50;99.90;;;;;;3058675;19;20007;-70
2022/10/01 01:04:19;;;;;;;12.18;8.23;;;10.70;99.90;;;;;;3057309;19;20011;-71
2022/10/01 01:05:23;;;;;;;9.95;7.53;;;10.60;99.90;;;;;;3058782;19;20014;-70
2022/10/01 01:06:28;;;;;;;11.98;8.57;;;11.00;99.90;;;;;;3057895;19;20082;-70
2022/10/01 01:07:34;;;;;;;10.93;8.30;;;10.50;99.90;;;;;;3056274;19;20488;-71
2022/10/01 01:08:36;;;;;;;10.27;8.45;;;10.60;99.90;;;;;;3059971;19;20015;-70
2022/10/01 01:09:42;;;;;;;11.85;8.32;;;10.60;99.90;;;;;;3057417;19;20494;-70
2022/10/01 01:10:51;;;;;;;10.32;7.82;;;10.50;99.90;;;;;;3058058;19;20428;-71
2022/10/01 01:12:03;;;;;;;11.05;8.20;;;10.50;99.90;;;;;;3058810;19;20397;-70
2022/10/01 01:13:12;;;;;;;10.85;7.72;;;10.40;99.90;;;;;;3061589;19;20035;-70
2022/10/01 01:14:24;;;;;;;10.60;8.38;;;10.50;99.90;;;;;;3060713;19;20610;-70
2022/10/01 01:15:32;;;;;;;11.70;8.02;;;10.60;99.90;;;;;;3061629;19;20006;-70
2022/10/01 01:16:37;;;;;;;10.93;7.65;;;10.30;99.90;;;;;;3061901;19;20022;-70
2022/10/01 01:17:46;;;;;;;11.77;7.97;;;10.60;99.90;;;;;;3061450;19;19999;-70
2022/10/01 01:18:59;;;;;;;12.65;8.23;;;10.30;99.90;;;;;;3061148;19;20018;-71
2022/10/01 01:20:22;;;;;;;11.88;7.35;;;10.90;99.90;;;;;;3061131;19;20031;-70
2022/10/01 01:21:31;;;;;;;10.25;8.02;;;10.50;99.90;;;;;;3060774;19;20010;-70
2022/10/01 01:22:39;;;;;;;9.73;7.63;;;10.20;99.90;;;;;;3060173;19;20364;-71
2022/10/01 01:24:13;;;;;;;12.40;7.50;;;10.40;99.90;;;;;;3061433;19;20022;-70
2022/10/01 01:25:19;;;;;;;11.18;8.00;;;10.50;99.90;;;;;;3061735;19;20081;-71
2022/10/01 01:26:31;;;;;;;11.25;8.05;;;10.50;99.90;;;;;;3061250;19;20011;-70
2022/10/01 01:27:39;;;;;;;10.30;7.13;;;10.50;99.90;;;;;;3061088;19;20500;-71
2022/10/01 01:28:46;;;;;;;10.40;7.68;;;10.40;99.90;;;;;;3060561;19;20031;-71
2022/10/01 01:29:56;;;;;;;9.52;7.75;;;10.50;99.90;;;;;;3062691;19;20079;-71
2022/10/01 01:31:01;;;;;;;10.20;7.43;;;10.70;99.90;;;;;;3061165;19;20010;-71
2022/10/01 01:32:11;;;;;;;10.55;7.85;;;10.60;99.90;;;;;;3060809;19;20014;-71
2022/10/01 01:33:17;;;;;;;12.73;7.60;;;10.40;99.90;;;;;;3060228;19;20397;-71
2022/10/01 01:34:27;;;;;;;10.45;7.43;;;10.20;99.90;;;;;;3060033;19;20022;-71
2022/10/01 01:35:32;;;;;;;10.27;7.38;;;10.50;99.90;;;;;;3060779;19;20018;-71
2022/10/01 01:36:38;;;;;;;8.63;6.97;;;10.50;99.90;;;;;;3058851;19;20014;-71
2022/10/01 01:37:46;;;;;;;9.27;7.38;;;10.60;99.90;;;;;;3060756;19;20512;-70
2022/10/01 01:38:53;;;;;;;12.30;7.85;;;10.50;99.90;;;;;;3061271;19;20010;-70
2022/10/01 01:39:57;;;;;;;11.55;7.07;;;10.40;99.90;;;;;;3062143;19;20026;-71
2022/10/01 01:41:04;;;;;;;9.48;7.55;;;10.70;99.90;;;;;;3058721;19;20043;-71
2022/10/01 01:42:12;;;;;;;9.77;6.88;;;10.40;99.90;;;;;;3061493;19;20018;-71
2022/10/01 01:43:20;;;;;;;9.88;7.72;;;10.20;99.90;;;;;;3059561;19;20050;-71
2022/10/01 01:44:29;;;;;;;9.98;7.57;;;10.40;99.90;;;;;;3060004;19;20026;-71
2022/10/01 01:45:38;;;;;;;9.57;7.72;;;10.30;99.90;;;;;;3060800;19;20031;-71
2022/10/01 01:46:42;;;;;;;9.70;7.57;;;10.50;99.90;;;;;;3061173;19;20010;-70
2022/10/01 01:47:48;;;;;;;10.02;7.03;;;10.40;99.90;;;;;;3060858;19;20092;-71
2022/10/01 01:48:52;;;;;;;11.82;7.90;;;10.70;99.90;;;;;;3060837;19;20022;-71
2022/10/01 01:49:57;;;;;;;10.30;7.57;;;10.60;99.90;;;;;;3060279;19;20059;-71
2022/10/01 01:51:05;;;;;;;10.77;7.53;;;10.50;99.90;;;;;;3060352;19;20018;-71
2022/10/01 01:52:13;;;;;;;10.93;7.43;;;10.50;99.90;;;;;;3061663;19;20045;-71
2022/10/01 01:53:15;;;;;;;10.38;7.53;;;10.20;99.90;;;;;;3062009;19;20018;-71
2022/10/01 01:54:19;;;;;;;9.48;7.68;;;10.40;99.90;;;;;;3059288;19;20014;-71
2022/10/01 01:55:24;;;;;;;11.45;7.65;;;10.40;99.90;;;;;;3061256;19;20038;-71
2022/10/01 01:56:28;;;;;;;10.95;7.35;;;10.40;99.90;;;;;;3060823;19;20022;-71
2022/10/01 01:57:30;;;;;;;11.30;7.75;;;10.30;99.90;;;;;;3061173;19;20002;-71
2022/10/01 01:58:35;;;;;;;11.02;7.50;;;10.30;99.90;;;;;;3060012;19;20026;-71
2022/10/01 01:59:40;;;;;;;11.77;7.97;;;10.40;99.90;;;;;;3062502;19;20022;-71
2022/10/01 02:00:44;;;;;;;10.50;8.30;;;10.20;99.90;;;;;;3059240;19;20006;-71
2022/10/01 02:01:48;;;;;;;10.23;7.75;;;10.30;99.90;;;;;;3062429;19;20015;-70
2022/10/01 02:02:55;;;;;;;10.85;8.30;;;10.60;99.90;;;;;;3060591;19;20014;-70
2022/10/01 02:03:57;;;;;;;9.45;7.55;;;10.30;99.90;;;;;;3059858;19;20446;-71
2022/10/01 02:05:03;;;;;;;10.35;7.55;;;10.60;99.90;;;;;;3059781;19;20497;-71
2022/10/01 02:06:18;;;;;;;12.88;7.72;;;10.00;99.90;;;;;;3060796;19;20023;-71
2022/10/01 02:07:51;;;;;;;9.38;7.45;;;10.30;99.90;;;;;;3061360;19;20440;-70
2022/10/01 02:08:58;;;;;;;10.60;7.20;;;10.60;99.90;;;;;;3060567;19;20095;-71
2022/10/01 02:10:13;;;;;;;13.48;7.93;;;10.30;99.90;;;;;;3060601;19;20018;-70
2022/10/01 02:11:27;;;;;;;13.30;8.35;;;10.60;99.90;;;;;;3059654;19;20025;-71
2022/10/01 02:12:44;;;;;;;13.52;8.63;;;10.50;99.90;;;;;;3059402;19;20547;-71
2022/10/01 02:13:56;;;;;;;9.57;7.88;;;10.30;99.90;;;;;;3060455;19;20033;-70
2022/10/01 02:15:10;;;;;;;10.38;7.82;;;10.30;99.90;;;;;;3059753;19;20026;-70
2022/10/01 02:16:19;;;;;;;13.95;8.15;;;10.30;99.90;;;;;;3060491;19;20010;-70
2022/10/01 02:17:32;;;;;;;13.18;8.27;;;10.30;99.90;;;;;;3060458;19;20013;-70
2022/10/01 02:18:39;;;;;;;12.00;7.43;;;10.70;99.90;;;;;;3060781;19;20338;-69
2022/10/01 02:19:50;;;;;;;12.55;7.40;;;10.20;99.90;;;;;;3060354;19;20369;-70
2022/10/01 02:20:56;;;;;;;9.95;7.93;;;10.30;99.90;;;;;;3059737;19;20014;-70
2022/10/01 02:22:04;;;;;;;11.32;7.40;;;10.20;99.90;;;;;;3061133;19;20014;-69
2022/10/01 02:23:08;;;;;;;16.10;7.68;;;10.00;99.90;;;;;;3057881;19;20457;-70
2022/10/01 02:24:21;;;;;;;11.13;7.65;;;10.20;99.90;;;;;;3059533;19;20021;-71
2022/10/01 02:25:26;;;;;;;11.35;7.20;;;10.10;99.90;;;;;;3061576;19;20022;-70
2022/10/01 02:26:32;;;;;;;12.18;8.23;;;10.30;99.90;;;;;;3060669;19;19998;-70
2022/10/01 02:27:40;;;;;;;11.30;7.40;;;10.20;99.90;;;;;;3059298;19;20074;-70
2022/10/01 02:28:46;;;;;;;11.43;7.82;;;10.00;99.90;;;;;;3060423;19;20082;-70
2022/10/01 02:29:49;;;;;;;9.35;7.15;;;10.60;99.90;;;;;;3059224;19;20014;-70
2022/10/01 02:30:58;;;;;;;12.82;8.10;;;10.40;99.90;;;;;;3060516;19;20006;-70
2022/10/01 02:32:01;;;;;;;9.25;6.95;;;10.50;99.90;;;;;;3060192;19;20014;-71
2022/10/01 02:33:07;;;;;;;12.60;7.63;;;10.10;99.90;;;;;;3060189;19;20024;-71
2022/10/01 02:34:09;;;;;;;10.70;7.35;;;10.20;99.90;;;;;;3058637;19;20015;-71
2022/10/01 02:35:18;;;;;;;10.90;7.70;;;10.20;99.90;;;;;;3061433;19;20010;-71
2022/10/01 02:36:21;;;;;;;9.90;7.57;;;10.20;99.90;;;;;;3059832;19;20480;-71
2022/10/01 02:37:27;;;;;;;12.13;7.90;;;10.40;99.90;;;;;;3060005;19;20077;-71
2022/10/01 02:38:29;;;;;;;9.65;7.53;;;10.30;99.90;;;;;;3060292;19;19999;-71
2022/10/01 02:39:35;;;;;;;9.95;7.57;;;10.60;99.90;;;;;;3060099;19;20003;-71
2022/10/01 02:40:39;;;;;;;11.63;7.38;;;9.90;99.90;;;;;;3059731;19;20010;-71
2022/10/01 02:41:45;;;;;;;9.93;7.60;;;10.20;99.90;;;;;;3060520;19;20018;-71
2022/10/01 02:42:50;;;;;;;10.95;6.85;;;10.20;99.90;;;;;;3059038;19;20018;-71
2022/10/01 02:43:59;;;;;;;11.15;7.88;;;10.20;99.90;;;;;;3059007;19;20031;-71
2022/10/01 02:45:01;;;;;;;12.48;7.72;;;10.60;99.90;;;;;;3059237;19;20018;-71
2022/10/01 02:46:14;;;;;;;10.43;7.68;;;10.50;99.90;;;;;;3059899;19;20033;-71
2022/10/01 02:47:20;;;;;;;10.93;7.80;;;10.20;99.90;;;;;;3060144;19;20014;-71
2022/10/01 02:48:26;;;;;;;11.00;7.82;;;;;;;;;;3060209;19;20007;-71
2022/10/01 02:49:29;;;;;;;11.18;8.00;;;10.20;99.90;;;;;;3060057;19;20476;-72
2022/10/01 02:50:38;;;;;;;10.40;7.72;;;10.20;99.90;;;;;;3059819;19;20018;-71
2022/10/01 02:51:47;;;;;;;11.38;7.60;;;10.10;99.90;;;;;;3059802;19;20006;-71
2022/10/01 02:52:57;;;;;;;9.93;7.30;;;10.60;99.90;;;;;;3059079;19;20015;-71
2022/10/01 02:54:04;;;;;;;9.00;7.20;;;10.10;99.90;;;;;;3060643;19;20018;-71
2022/10/01 02:55:13;;;;;;;9.82;7.57;;;10.20;99.90;;;;;;3059407;19;20017;-71
2022/10/01 02:57:21;;;;;;;10.27;7.18;;;10.10;99.90;;;;;;3061616;19;20014;-71
2022/10/01 02:57:39;;;;;;;;;;;10.10;99.90;;;;;;3060878;19;20360;-72
2022/10/01 02:58:40;;;;;;;10.13;6.85;;;10.10;99.90;;;;;;3059879;19;19911;-71
2022/10/01 02:59:42;;;;;;;10.55;6.75;;;10.50;99.90;;;;;;3060129;19;20014;-72
2022/10/01 03:00:46;;;;;;;9.98;7.10;;;10.30;99.90;;;;;;3056780;19;20698;-72
2022/10/01 03:01:50;;;;;;;13.20;7.65;;;10.10;99.90;;;;;;3059725;19;20019;-71
2022/10/01 03:02:54;;;;;;;14.90;8.20;;;10.20;99.90;;;;;;3058088;19;20014;-72
2022/10/01 03:03:55;;;;;;;10.82;7.53;;;10.50;99.90;;;;;;3059338;19;20104;-71
2022/10/01 03:04:59;;;;;;;11.05;8.02;;;10.50;99.90;;;;;;3058337;19;20021;-72
2022/10/01 03:06:01;;;;;;;9.73;7.40;;;9.90;99.90;;;;;;3059731;19;20618;-72
2022/10/01 03:07:05;;;;;;;10.20;7.70;;;9.90;99.90;;;;;;3059697;19;20019;-72
2022/10/01 03:08:06;;;;;;;15.15;7.82;;;9.90;99.90;;;;;;3059804;19;20361;-72
2022/10/01 03:09:10;;;;;;;;;;;10.00;99.90;;;;;;3060318;19;20025;-72
2022/10/01 03:10:14;;;;;;;9.95;7.28;;;9.90;99.90;;;;;;3059013;19;19918;-72
2022/10/01 03:11:19;;;;;;;10.85;7.47;;;10.10;99.90;;;;;;3059684;19;20014;-72
2022/10/01 03:12:22;;;;;;;10.73;8.00;;;10.00;99.90;;;;;;3059663;19;19999;-72
2022/10/01 03:13:26;;;;;;;11.52;8.05;;;9.90;99.90;;;;;;3058814;19;20096;-73
2022/10/01 03:14:27;;;;;;;13.13;8.35;;;10.20;99.90;;;;;;3058710;19;20021;-72
2022/10/01 03:15:31;;;;;;;11.43;7.93;;;10.00;99.90;;;;;;3059634;19;20010;-74
2022/10/01 03:16:33;;;;;;;10.55;7.72;;;10.00;99.90;;;;;;3059788;19;20006;-72
2022/10/01 03:17:39;;;;;;;11.07;7.18;;;10.00;99.90;;;;;;3060841;19;20086;-72
2022/10/01 03:18:40;;;;;;;12.63;7.35;;;10.10;99.90;;;;;;3059093;19;20029;-72
2022/10/01 03:19:45;;;;;;;11.63;7.72;;;10.10;99.90;;;;;;3060715;19;20043;-72
2022/10/01 03:20:47;;;;;;;9.23;7.40;;;10.10;99.90;;;;;;3059436;19;20010;-73
2022/10/01 03:21:51;;;;;;;10.57;7.00;;;10.00;99.90;;;;;;3059517;19;20367;-73
2022/10/01 03:22:54;;;;;;;10.13;6.85;;;10.10;99.90;;;;;;3058825;19;20012;-73
2022/10/01 03:23:56;;;;;;;9.18;6.78;;;10.10;99.90;;;;;;3058765;19;20014;-73
2022/10/01 03:25:00;;;;;;;11.85;7.38;;;9.80;99.90;;;;;;3059672;19;20025;-73
2022/10/01 03:26:01;;;;;;;9.70;7.10;;;10.20;99.90;;;;;;3059199;19;20360;-74
2022/10/01 03:27:05;;;;;;;8.55;7.47;;;10.30;99.90;;;;;;3061200;19;20398;-74
2022/10/01 03:28:06;;;;;;;10.50;7.50;;;9.90;99.90;;;;;;3059419;19;20006;-73
2022/10/01 03:29:12;;;;;;;11.35;7.80;;;9.90;99.90;;;;;;3059790;19;20002;-73
2022/10/01 03:30:13;;;;;;;9.48;7.47;;;;;;;;;;3058794;19;20015;-73
2022/10/01 03:31:17;;;;;;;11.20;7.07;;;10.00;99.90;;;;;;3058685;19;20031;-73
2022/10/01 03:32:19;;;;;;;10.05;7.22;;;10.10;99.90;;;;;;3058730;19;20022;-73
2022/10/01 03:33:25;;;;;;;11.07;7.20;;;10.60;99.90;;;;;;3059486;19;20408;-74
2022/10/01 03:34:27;;;;;;;9.07;6.60;;;10.10;99.90;;;;;;3059872;19;20014;-73
2022/10/01 03:35:31;;;;;;;9.30;6.32;;;10.60;99.90;;;;;;3059684;19;20019;-74
2022/10/01 03:36:35;;;;;;;9.30;7.22;;;10.50;99.90;;;;;;3057381;19;20014;-74
2022/10/01 03:37:36;;;;;;;9.15;7.30;;;10.10;99.90;;;;;;3058636;19;20018;-75
2022/10/01 03:38:40;;;;;;;9.27;6.45;;;10.20;99.90;;;;;;3059273;19;20014;-73
2022/10/01 03:39:41;;;;;;;10.63;6.75;;;10.10;99.90;;;;;;3059042;19;20006;-74
2022/10/01 03:40:45;;;;;;;10.35;6.75;;;10.40;99.90;;;;;;3057601;19;20018;-74
2022/10/01 03:41:46;;;;;;;9.27;6.18;;;10.20;99.90;;;;;;3058836;19;20013;-74
2022/10/01 03:42:50;;;;;;;9.63;6.65;;;10.20;99.90;;;;;;3059249;19;20010;-74
2022/10/01 03:43:52;;;;;;;8.30;6.72;;;10.20;99.90;;;;;;3059220;19;20011;-73
2022/10/01 03:44:56;;;;;;;10.13;6.60;;;10.20;99.90;;;;;;3058517;19;20018;-74
2022/10/01 03:45:57;;;;;;;11.18;7.03;;;10.20;99.90;;;;;;3060591;19;20018;-73
2022/10/01 03:47:01;;;;;;;9.68;6.90;;;10.20;99.90;;;;;;3059236;19;20015;-74
2022/10/01 03:48:02;;;;;;;8.23;6.55;;;10.20;99.90;;;;;;3059006;19;20017;-74
2022/10/01 03:49:10;;;;;;;8.55;6.70;;;10.30;99.90;;;;;;3057492;19;20011;-74
2022/10/01 03:50:11;;;;;;;7.65;6.18;;;10.00;99.90;;;;;;3058369;19;20022;-74
2022/10/01 03:51:15;;;;;;;8.10;6.07;;;10.10;99.90;;;;;;3059260;19;20019;-74
2022/10/01 03:52:16;;;;;;;7.72;6.10;;;;;;;;;;3059225;19;20022;-74
2022/10/01 03:53:20;;;;;;;7.97;6.10;;;10.30;99.90;;;;;;3060155;19;20045;-74
2022/10/01 03:54:25;;;;;;;8.85;5.95;;;10.40;99.90;;;;;;3059970;19;20487;-74
2022/10/01 03:55:26;;;;;;;7.72;6.00;;;10.30;99.90;;;;;;3059084;19;20015;-74
2022/10/01 03:56:30;;;;;;;6.95;5.90;;;10.70;99.90;;;;;;3059180;19;20002;-74
2022/10/01 03:57:31;;;;;;;8.77;6.25;;;;;;;;;;3058374;19;20014;-74
2022/10/01 03:58:35;;;;;;;7.30;5.90;;;10.20;99.90;;;;;;3057463;19;20392;-74
2022/10/01 03:59:36;;;;;;;7.75;5.38;;;10.30;99.90;;;;;;3060491;19;20456;-74
2022/10/01 04:00:40;;;;;;;7.15;5.63;;;10.30;99.90;;;;;;3059572;19;20011;-74
2022/10/01 04:01:44;;;;;;;6.47;5.00;;;10.70;99.90;;;;;;3055438;19;20111;-74
2022/10/01 04:02:46;;;;;;;7.25;5.03;;;10.40;99.90;;;;;;3056955;19;20010;-74
2022/10/01 04:03:50;;;;;;;8.85;5.20;;;10.30;99.90;;;;;;3056929;19;20676;-74
2022/10/01 04:04:55;;;;;;;6.95;4.60;;;10.40;99.90;;;;;;3058560;19;20015;-74
2022/10/01 04:05:59;;;;;;;6.93;5.10;;;10.70;99.90;;;;;;3058968;19;20014;-74
2022/10/01 04:07:00;;;;;;;6.72;4.43;;;;;;;;;;3058724;19;20580;-74
2022/10/01 04:08:04;;;;;;;7.00;4.90;;;10.60;99.90;;;;;;3057507;19;20019;-74
2022/10/01 04:09:08;;;;;;;6.00;4.50;;;10.30;99.90;;;;;;3059437;19;20488;-74
2022/10/01 04:10:12;;;;;;;6.38;4.57;;;10.40;99.90;;;;;;3058519;19;20014;-74
2022/10/01 04:11:14;;;;;;;4.60;3.85;;;10.60;99.90;;;;;;3058769;19;20011;-75
2022/10/01 04:12:18;;;;;;;6.38;4.90;;;;;;;;;;3058977;19;20011;-74
2022/10/01 04:13:19;;;;;;;5.82;4.82;;;10.30;99.90;;;;;;3058761;19;20176;-75
2022/10/01 04:14:23;;;;;;;4.97;4.15;;;10.70;99.90;;;;;;3059051;19;20087;-74
2022/10/01 04:15:25;;;;;;;5.20;4.13;;;10.20;99.90;;;;;;3059307;19;20023;-75
2022/10/01 04:16:29;;;;;;;6.05;4.80;;;10.30;99.90;;;;;;3058962;19;20362;-74
2022/10/01 04:17:30;;;;;;;5.22;4.10;;;10.60;99.90;;;;;;3058898;19;20015;-74
2022/10/01 04:18:35;;;;;;;;;;;10.20;99.90;;;;;;3058489;19;20018;-74
2022/10/01 04:19:36;;;;;;;6.70;4.65;;;10.30;99.90;;;;;;3060644;19;19940;-74
2022/10/01 04:20:43;;;;;;;6.45;4.82;;;10.30;99.90;;;;;;3057022;19;20360;-74
2022/10/01 04:21:45;;;;;;;4.80;3.58;;;10.30;99.90;;;;;;3058707;19;20039;-75
2022/10/01 04:22:48;;;;;;;6.70;4.72;;;10.30;99.90;;;;;;3058750;19;20082;-74
2022/10/01 04:23:50;;;;;;;5.25;4.50;;;10.10;99.90;;;;;;3058483;19;20014;-74
2022/10/01 04:24:54;;;;;;;5.28;4.32;;;;;;;;;;3057633;19;21590;-74
2022/10/01 04:25:58;;;;;;;5.45;4.28;;;10.30;99.90;;;;;;3057466;19;20026;-74
2022/10/01 04:27:02;;;;;;;6.40;4.55;;;;;;;;;;3058848;19;20039;-74
2022/10/01 04:28:06;;;;;;;5.00;4.38;;;10.30;99.90;;;;;;3058569;19;20002;-74
2022/10/01 04:29:10;;;;;;;5.70;3.88;;;10.20;99.90;;;;;;3058488;19;20006;-75
2022/10/01 04:30:11;;;;;;;4.22;3.60;;;10.30;99.90;;;;;;3057933;19;20003;-74
2022/10/01 04:31:33;;;;;;;4.85;3.60;;;10.30;99.90;;;;;;3058939;19;20026;-74
2022/10/01 04:32:35;;;;;;;5.15;3.50;;;10.20;99.90;;;;;;3058318;19;20078;-74
2022/10/01 04:33:38;;;;;;;5.63;3.72;;;10.40;99.90;;;;;;3059051;19;20488;-74
2022/10/01 04:34:52;;;;;;;4.97;3.80;;;;;;;;;;3059012;19;20039;-74
2022/10/01 04:35:59;;;;;;;4.32;3.50;;;10.30;99.90;;;;;;3058641;19;20098;-74
2022/10/01 04:37:00;;;;;;;4.93;3.50;;;10.20;99.90;;;;;;3057890;19;20475;-74
2022/10/01 04:38:06;;;;;;;4.53;3.30;;;10.30;99.90;;;;;;3058509;19;20011;-74
2022/10/01 04:39:08;;;;;;;4.32;3.40;;;10.40;99.90;;;;;;3058478;19;20027;-74
2022/10/01 04:40:12;;;;;;;3.90;3.20;;;10.00;99.90;;;;;;3057603;19;20014;-74
2022/10/01 04:41:13;;;;;;;4.30;3.50;;;10.20;99.90;;;;;;3058047;19;20053;-74
2022/10/01 04:42:17;;;;;;;4.38;3.55;;;10.40;99.90;;;;;;3057741;19;20514;-74
2022/10/01 04:43:19;;;;;;;3.85;3.22;;;10.50;99.90;;;;;;3059112;19;20022;-74
2022/10/01 04:44:22;;;;;;;4.07;3.30;;;10.30;99.90;;;;;;3058554;19;20015;-74
2022/10/01 04:45:24;;;;;;;4.72;3.10;;;10.30;99.90;;;;;;3058049;19;20014;-74
2022/10/01 04:46:28;;;;;;;3.55;2.97;;;;;;;;;;3056781;19;20562;-74
2022/10/01 04:47:29;;;;;;;3.35;2.90;;;;;;;;;;3058446;19;20006;-74
2022/10/01 04:48:34;;;;;;;4.32;3.00;;;;;;;;;;3057612;19;20014;-74
2022/10/01 04:49:36;;;;;;;3.67;2.80;;;10.10;99.90;;;;;;3059076;19;20529;-74
2022/10/01 04:50:39;;;;;;;3.65;2.70;;;10.40;99.90;;;;;;3056288;19;20065;-74
2022/10/01 04:51:43;;;;;;;3.55;2.65;;;10.30;99.90;;;;;;3057728;19;20364;-74
2022/10/01 04:52:48;;;;;;;3.60;2.75;;;;;;;;;;3057829;19;20397;-74
2022/10/01 04:53:49;;;;;;;4.47;2.97;;;10.50;99.90;;;;;;3059732;19;20025;-74
2022/10/01 04:54:53;;;;;;;3.80;2.72;;;10.40;99.90;;;;;;3056951;19;20049;-75
2022/10/01 04:55:55;;;;;;;3.55;2.70;;;10.80;99.90;;;;;;3058445;19;20039;-75
2022/10/01 04:56:59;;;;;;;3.40;2.85;;;;;;;;;;3059362;19;20017;-75
2022/10/01 04:58:00;;;;;;;4.30;2.97;;;10.20;99.90;;;;;;3057842;19;20038;-75
2022/10/01 04:59:04;;;;;;;4.60;3.35;;;;;;;;;;3058963;19;20029;-74
2022/10/01 05:00:09;;;;;;;5.03;2.95;;;10.40;99.90;;;;;;3056604;19;20046;-73
2022/10/01 05:01:13;;;;;;;4.18;2.92;;;10.40;99.90;;;;;;3059932;19;20011;-74
2022/10/01 05:02:15;;;;;;;4.05;3.20;;;10.50;99.90;;;;;;3057878;19;20042;-74
2022/10/01 05:03:19;;;;;;;4.00;3.03;;;10.30;99.90;;;;;;3058712;19;20082;-75
2022/10/01 05:04:20;;;;;;;3.75;2.88;;;10.60;99.90;;;;;;3058340;19;20015;-75
2022/10/01 05:05:27;;;;;;;4.90;2.90;;;10.60;99.90;;;;;;3058146;19;20112;-75
2022/10/01 05:06:29;;;;;;;4.47;2.85;;;10.40;99.90;;;;;;3060654;19;20107;-76
2022/10/01 05:07:36;;;;;;;3.58;2.80;;;10.50;99.90;;;;;;3058835;19;20010;-74
2022/10/01 05:08:38;;;;;;;3.33;2.60;;;10.40;99.90;;;;;;3056776;19;20022;-74
2022/10/01 05:09:42;;;;;;;3.10;2.63;;;10.40;99.90;;;;;;3059449;19;20018;-75
2022/10/01 05:10:43;;;;;;;4.03;2.85;;;10.40;99.90;;;;;;3053940;19;20029;-74
2022/10/01 05:11:50;;;;;;;3.08;2.78;;;10.40;99.90;;;;;;3059797;19;20014;-75
2022/10/01 05:12:52;;;;;;;3.92;3.08;;;10.40;99.90;;;;;;3058137;19;20022;-74
2022/10/01 05:13:56;;;;;;;3.78;2.90;;;;;;;;;;3059641;19;20022;-74
2022/10/01 05:14:57;;;;;;;4.15;3.08;;;10.50;99.90;;;;;;3057311;19;20015;-74
2022/10/01 05:16:02;;;;;;;3.85;3.00;;;10.20;99.90;;;;;;3057294;19;20479;-74
2022/10/01 05:17:05;;;;;;;4.13;3.10;;;10.40;99.90;;;;;;3059605;19;20468;-74
2022/10/01 05:18:09;;;;;;;3.90;3.28;;;10.40;99.90;;;;;;3057854;19;20493;-75
2022/10/01 05:19:11;;;;;;;4.50;3.08;;;10.70;99.90;;;;;;3057804;19;20383;-74
2022/10/01 05:20:19;;;;;;;4.82;3.28;;;10.50;99.90;;;;;;3057963;19;20062;-74
2022/10/01 05:21:20;;;;;;;4.55;3.03;;;10.60;99.90;;;;;;3057570;19;20385;-74
2022/10/01 05:22:24;;;;;;;3.50;2.80;;;10.40;99.90;;;;;;3057010;19;20014;-74
2022/10/01 05:23:28;;;;;;;4.93;3.20;;;10.50;99.90;;;;;;3058833;19;20018;-74
2022/10/01 05:24:32;;;;;;;3.58;3.13;;;10.50;99.90;;;;;;3057789;19;20018;-74
2022/10/01 05:25:33;;;;;;;4.07;3.00;;;10.30;99.90;;;;;;3057245;19;20496;-74
2022/10/01 05:26:38;;;;;;;4.50;2.70;;;10.50;99.90;;;;;;3057955;19;20018;-74
2022/10/01 05:27:40;;;;;;;3.90;2.92;;;10.60;99.90;;;;;;3058357;19;20030;-74
2022/10/01 05:28:44;;;;;;;3.80;3.10;;;10.50;99.90;;;;;;3057980;19;20492;-74
2022/10/01 05:29:45;;;;;;;4.30;3.35;;;11.00;99.90;;;;;;3058247;19;20018;-74
2022/10/01 05:30:49;;;;;;;5.00;3.10;;;;;;;;;;3056344;19;20053;-75
2022/10/01 05:31:51;;;;;;;4.07;2.95;;;10.50;99.90;;;;;;3057527;19;20082;-74
2022/10/01 05:32:59;;;;;;;5.10;2.90;;;10.60;99.90;;;;;;3057813;19;20708;-74
2022/10/01 05:34:01;;;;;;;3.75;2.80;;;10.60;99.90;;;;;;3057948;19;20467;-74
2022/10/01 05:35:05;;;;;;;4.15;3.03;;;10.40;99.90;;;;;;3057753;19;20018;-74
2022/10/01 05:36:07;;;;;;;3.95;2.90;;;10.50;99.90;;;;;;3057247;19;20019;-74
2022/10/01 05:37:11;;;;;;;3.58;2.90;;;10.70;99.90;;;;;;3057164;19;20011;-74
2022/10/01 05:38:12;;;;;;;3.63;2.88;;;10.60;99.90;;;;;;3058194;19;20483;-74